Greenwood Leflore Airport
KGWO : now visible

Airfield :











YOU CAN JOIN US ON...

 
LOGIN :

Register | Disclaimer

   EN    FR    IT 

 









Legend :    VFR   Marginal VFR   IFR   Intensive IFR   Very Intensive IFR
Visi :
Ceiling :
>= 8 km
>= 3000ft
5 to 8 km
1000 to 3000 ft
1500m to 5 km
500 to 1000 ft
800 to 1500m
200 to 500 ft
< 800m
< 200 ft
Symbols :   Thunderstorms  Fog  Heavy snow  Heavy precipitations  Wind > 20 kt







- Airport Elevation : 162 ft


KGWO - Greenwood Leflore

CURRENT METAR :
  • 201553Z AUTO 34009G15KT 10SM CLR 17/02 A3000 RMK AO2 SLP157 T01720017

EXPIRED METARs :
  • 201453Z AUTO 31007KT 280V340 10SM CLR 16/02 A2998 RMK AO2 SLP151 T01560022 52021
  • 201353Z AUTO 31007KT 280V350 10SM CLR 13/02 A2996 RMK AO2 SLP144 T01330022

TAF KGWO
Valid from the 20 at 12:00 until the 21 at 12:00 UTC


201135Z 2012/2112 28005KT P6SM SKC
FM201500 31012G20KT P6SM SKC
FM210000 VRB03KT P6SM SKC
KZME FIR / North America



MET'MAP, your aeronautical weather chart ! - Copyright ORBIFLY December 2007 - Disclaimer

ORBIFLY MET'MAP TEAM :

Programming & Development : Alexandra Zaïnal
Concept & Development : Baudouin d'Aumeries
Co-Development & Prog : Marc-Olivier Méhu
Technical & hardware support : Manuel Goepfert

Contact : metmap@orbifly.com




SOURCES & CREDITS :

   NOAA       Earth
Advisory